createdAt,value
2023-05-18T00:02:37.352Z,3.05
2023-05-18T00:05:05.455Z,3.85
2023-05-18T00:07:34.236Z,3.92
2023-05-18T00:10:02.290Z,4.03
2023-05-18T00:12:30.325Z,3.05
2023-05-18T00:14:58.318Z,4.30
2023-05-18T00:17:26.376Z,3.20
2023-05-18T00:19:58.821Z,4.30
2023-05-18T00:22:26.782Z,4.40
2023-05-18T00:27:22.452Z,4.30
2023-05-18T00:32:17.999Z,4.18
2023-05-18T00:34:45.858Z,4.78
2023-05-18T00:37:15.159Z,4.07
2023-05-18T00:39:42.958Z,3.83
2023-05-18T00:42:10.762Z,4.30
2023-05-18T00:44:40.850Z,4.22
2023-05-18T00:47:09.606Z,4.35
2023-05-18T00:49:37.543Z,4.03
2023-05-18T00:57:03.151Z,4.82
2023-05-18T00:59:32.821Z,4.38
2023-05-18T01:02:01.705Z,3.97
2023-05-18T01:04:31.909Z,4.82
2023-05-18T01:07:06.855Z,4.47
2023-05-18T01:09:36.138Z,3.90
2023-05-18T01:12:08.923Z,5.50
2023-05-18T01:14:39.371Z,3.95
2023-05-18T01:17:11.445Z,4.32
2023-05-18T01:20:01.614Z,4.75
2023-05-18T01:22:34.491Z,4.72
2023-05-18T01:25:06.788Z,4.30
2023-05-18T01:27:37.707Z,4.75
2023-05-18T01:30:06.710Z,5.13
2023-05-18T01:32:40.286Z,4.93
2023-05-18T01:35:08.190Z,4.88
2023-05-18T01:37:35.746Z,4.75
2023-05-18T01:40:05.440Z,4.65
2023-05-18T01:42:35.490Z,4.32
2023-05-18T01:45:07.860Z,5.13
2023-05-18T01:47:36.754Z,4.97
2023-05-18T01:50:06.134Z,4.75
2023-05-18T01:52:34.402Z,4.57
2023-05-18T01:55:03.875Z,4.20
2023-05-18T01:57:32.733Z,6.03
2023-05-18T02:00:01.010Z,5.07
2023-05-18T02:02:29.993Z,6.45
2023-05-18T02:04:58.278Z,5.03
2023-05-18T02:07:26.059Z,4.70
2023-05-18T02:09:54.218Z,4.22
2023-05-18T02:12:23.127Z,6.45
2023-05-18T02:14:50.926Z,4.40
2023-05-18T02:17:18.545Z,4.65
2023-05-18T02:19:47.769Z,5.38
2023-05-18T02:22:16.361Z,4.55
2023-05-18T02:27:15.195Z,5.38
2023-05-18T02:29:42.914Z,5.10
2023-05-18T02:32:10.623Z,5.97
2023-05-18T02:37:08.202Z,5.15
2023-05-18T02:39:35.903Z,5.65
2023-05-18T02:42:03.733Z,4.60
2023-05-18T02:44:33.889Z,5.28
2023-05-18T02:47:01.718Z,5.72
2023-05-18T02:49:29.616Z,5.75
2023-05-18T02:54:26.340Z,5.45
2023-05-18T02:56:57.118Z,5.07
2023-05-18T02:59:33.992Z,5.93
2023-05-18T03:02:01.751Z,5.13
2023-05-18T03:04:31.823Z,4.93
2023-05-18T03:07:03.847Z,5.72
2023-05-18T03:09:33.051Z,5.25
2023-05-18T03:12:01.364Z,6.15
2023-05-18T03:14:29.555Z,6.45
2023-05-18T03:16:58.077Z,6.82
2023-05-18T03:19:27.224Z,5.55
2023-05-18T03:21:55.355Z,6.43
2023-05-18T03:24:26.505Z,6.13
2023-05-18T03:26:57.051Z,6.20
2023-05-18T03:29:25.989Z,5.72
2023-05-18T03:31:54.172Z,6.70
2023-05-18T03:34:22.032Z,6.30
2023-05-18T03:39:20.455Z,6.07
2023-05-18T03:41:49.021Z,6.32
2023-05-18T03:44:18.048Z,6.88
2023-05-18T03:46:46.237Z,6.30
2023-05-18T03:49:14.196Z,6.03
2023-05-18T03:51:43.701Z,7.55
2023-05-18T03:54:11.654Z,6.63
2023-05-18T03:59:08.440Z,5.35
2023-05-18T04:06:35.474Z,6.00
2023-05-18T04:09:05.032Z,6.38
2023-05-18T04:11:32.744Z,6.10
2023-05-18T04:14:01.487Z,5.78
2023-05-18T04:16:29.427Z,6.75
2023-05-18T04:18:57.440Z,5.88
2023-05-18T04:21:25.243Z,6.10
2023-05-18T04:23:54.395Z,5.63
2023-05-18T04:26:22.516Z,5.43
2023-05-18T04:28:52.046Z,6.18
2023-05-18T04:31:19.878Z,5.72
2023-05-18T04:33:47.927Z,5.93
2023-05-18T04:36:21.252Z,6.18
2023-05-18T04:38:51.420Z,6.75
2023-05-18T04:41:22.257Z,6.28
2023-05-18T04:43:50.929Z,5.68
2023-05-18T04:46:19.124Z,6.65
2023-05-18T04:48:50.153Z,5.47
2023-05-18T04:51:21.770Z,6.18
2023-05-18T04:53:50.465Z,6.43
2023-05-18T04:56:18.720Z,5.75
2023-05-18T04:58:49.287Z,7.40
2023-05-18T05:01:18.294Z,6.47
2023-05-18T05:03:46.680Z,6.00
2023-05-18T05:06:14.683Z,6.70
2023-05-18T05:11:10.610Z,6.25
2023-05-18T05:13:38.522Z,6.93
2023-05-18T05:16:08.094Z,6.88
2023-05-18T05:18:36.428Z,8.05
2023-05-18T05:21:04.614Z,6.97
2023-05-18T05:23:32.644Z,7.13
2023-05-18T05:26:00.688Z,6.70
2023-05-18T05:28:30.347Z,7.10
2023-05-18T05:35:55.322Z,6.22
2023-05-18T05:38:23.441Z,5.50
2023-05-18T05:40:51.469Z,6.47
2023-05-18T05:43:19.793Z,6.30
2023-05-18T05:45:48.595Z,7.18
2023-05-18T05:48:17.648Z,6.05
2023-05-18T05:50:46.181Z,5.13
2023-05-18T05:53:19.915Z,5.35
2023-05-18T05:55:49.731Z,4.72
2023-05-18T05:58:19.188Z,5.32
2023-05-18T06:00:51.743Z,4.70
2023-05-18T06:03:20.468Z,5.18
2023-05-18T06:05:48.824Z,5.65
2023-05-18T06:08:20.885Z,4.15
2023-05-18T06:10:48.910Z,4.63
2023-05-18T06:13:17.897Z,4.53
2023-05-18T06:15:51.786Z,5.13
2023-05-18T06:18:19.807Z,4.50
2023-05-18T06:20:49.290Z,4.47
2023-05-18T06:23:22.770Z,6.20
2023-05-18T06:26:04.233Z,5.47
2023-05-18T06:28:38.337Z,4.45
2023-05-18T06:31:35.892Z,5.13
2023-05-18T06:34:12.668Z,3.90
2023-05-18T06:36:41.899Z,6.90
2023-05-18T06:39:09.966Z,4.15
2023-05-18T06:41:41.251Z,4.63
2023-05-18T06:44:09.443Z,4.47
2023-05-18T06:46:38.206Z,4.00
2023-05-18T06:49:14.938Z,4.43
2023-05-18T06:54:12.581Z,4.13
2023-05-18T06:59:09.368Z,3.47
2023-05-18T07:01:38.382Z,3.80
2023-05-18T07:04:07.901Z,4.10
2023-05-18T07:06:37.786Z,4.28
2023-05-18T07:09:05.991Z,4.38
2023-05-18T07:11:34.018Z,4.10
2023-05-18T07:14:01.989Z,3.50
2023-05-18T07:18:59.908Z,3.72
2023-05-18T07:21:27.884Z,3.67
2023-05-18T07:23:55.874Z,3.42
2023-05-18T07:26:24.006Z,3.72
2023-05-18T07:28:52.483Z,4.60
2023-05-18T07:31:21.773Z,4.10
2023-05-18T07:33:49.977Z,4.03
2023-05-18T07:36:19.357Z,3.75
2023-05-18T07:38:47.599Z,4.13
2023-05-18T07:41:15.550Z,3.25
2023-05-18T07:43:44.603Z,4.57
2023-05-18T07:46:12.633Z,3.90
2023-05-18T07:48:41.189Z,6.05
2023-05-18T07:51:09.523Z,4.00
2023-05-18T07:53:39.703Z,4.28
2023-05-18T07:56:08.396Z,3.50
2023-05-18T07:58:36.440Z,3.78
2023-05-18T08:01:04.669Z,3.55
2023-05-18T08:03:33.089Z,4.03
2023-05-18T08:06:01.335Z,3.60
2023-05-18T08:08:29.325Z,4.07
2023-05-18T08:10:59.062Z,3.72
2023-05-18T08:13:27.057Z,3.78
2023-05-18T08:18:38.238Z,3.90
2023-05-18T08:21:08.318Z,4.65
2023-05-18T08:23:36.346Z,4.50
2023-05-18T08:26:06.018Z,4.07
2023-05-18T08:28:34.209Z,4.45
2023-05-18T08:31:02.102Z,4.05
2023-05-18T08:38:25.685Z,4.50
2023-05-18T08:40:57.324Z,3.80
2023-05-18T08:43:33.522Z,3.80
2023-05-18T08:46:05.247Z,4.32
2023-05-18T08:48:33.782Z,3.40
2023-05-18T08:51:03.199Z,4.07
2023-05-18T08:53:31.815Z,4.47
2023-05-18T08:56:01.309Z,4.47
2023-05-18T08:58:35.911Z,4.35
2023-05-18T09:01:05.091Z,4.88
2023-05-18T09:03:33.748Z,3.95
2023-05-18T09:06:01.792Z,4.60
2023-05-18T09:08:30.497Z,4.65
2023-05-18T09:10:59.290Z,4.03
2023-05-18T09:13:27.439Z,4.25
2023-05-18T09:15:56.467Z,4.63
2023-05-18T09:18:25.566Z,4.18
2023-05-18T09:20:54.390Z,4.55
2023-05-18T09:23:21.903Z,4.15
2023-05-18T09:25:50.708Z,5.10
2023-05-18T09:28:27.055Z,3.75
2023-05-18T09:30:55.894Z,3.83
2023-05-18T09:33:23.535Z,3.97
2023-05-18T09:35:51.369Z,4.18
2023-05-18T09:38:21.869Z,3.30
2023-05-18T09:40:49.965Z,3.13
2023-05-18T09:43:17.813Z,3.80
2023-05-18T09:48:14.786Z,3.22
2023-05-18T09:50:43.825Z,4.68
2023-05-18T09:53:11.861Z,3.75
2023-05-18T09:55:49.765Z,3.63
2023-05-18T09:58:31.632Z,3.95
2023-05-18T10:01:01.727Z,4.20
2023-05-18T10:03:32.639Z,3.85
2023-05-18T10:06:02.464Z,3.72
2023-05-18T10:08:29.903Z,4.68
2023-05-18T10:10:57.388Z,4.35
2023-05-18T10:13:26.851Z,4.80
2023-05-18T10:15:55.927Z,4.78
2023-05-18T10:18:24.268Z,4.60
2023-05-18T10:20:54.144Z,4.03
2023-05-18T10:23:21.994Z,4.68
2023-05-18T10:28:20.089Z,3.70
2023-05-18T10:30:47.859Z,3.70
2023-05-18T10:33:27.899Z,4.90
2023-05-18T10:35:58.556Z,4.13
2023-05-18T10:38:26.440Z,3.65
2023-05-18T10:43:23.973Z,4.38
2023-05-18T10:45:53.629Z,4.25
2023-05-18T10:48:21.858Z,4.65
2023-05-18T10:50:49.554Z,4.78
2023-05-18T10:53:19.606Z,3.47
2023-05-18T10:55:47.890Z,4.32
2023-05-18T10:58:16.932Z,3.92
2023-05-18T11:00:45.484Z,3.72
2023-05-18T11:03:14.488Z,4.88
2023-05-18T11:05:42.504Z,4.18
2023-05-18T11:08:10.206Z,4.07
2023-05-18T11:10:42.338Z,4.72
2023-05-18T11:13:11.296Z,3.63
2023-05-18T11:16:05.017Z,4.78
2023-05-18T11:18:36.988Z,3.80
2023-05-18T11:21:04.520Z,4.88
2023-05-18T11:23:32.460Z,4.43
2023-05-18T11:26:04.537Z,4.15
2023-05-18T11:28:33.513Z,4.55
2023-05-18T11:31:00.971Z,4.05
2023-05-18T11:33:30.157Z,4.32
2023-05-18T11:36:08.346Z,4.25
2023-05-18T11:38:52.834Z,4.35
2023-05-18T11:41:32.130Z,4.25
2023-05-18T11:44:06.577Z,3.38
2023-05-18T11:46:34.250Z,3.20
2023-05-18T11:51:31.680Z,3.20
2023-05-18T11:53:59.449Z,3.20
2023-05-18T11:56:27.017Z,3.63
2023-05-18T12:03:53.440Z,3.33
2023-05-18T12:06:21.179Z,3.33
2023-05-18T12:08:48.602Z,3.58
2023-05-18T12:11:16.367Z,3.30
2023-05-18T12:13:43.935Z,3.65
2023-05-18T12:18:39.598Z,4.00
2023-05-18T12:21:08.630Z,3.88
2023-05-18T12:23:37.946Z,3.97
2023-05-18T12:26:05.404Z,3.83
2023-05-18T12:28:32.848Z,4.10
2023-05-18T12:33:34.545Z,2.90
2023-05-18T12:40:57.982Z,3.28
2023-05-18T12:43:26.463Z,3.83
2023-05-18T12:45:54.686Z,4.88
2023-05-18T12:48:26.444Z,3.05
2023-05-18T12:50:55.490Z,3.53
2023-05-18T12:53:24.014Z,3.28
2023-05-18T12:55:58.845Z,3.50
2023-05-18T12:58:26.437Z,4.00
2023-05-18T13:00:53.996Z,3.50
2023-05-18T13:06:02.795Z,4.20
2023-05-18T13:08:32.396Z,3.20
2023-05-18T13:11:12.900Z,3.85
2023-05-18T13:13:57.887Z,3.08
2023-05-18T13:16:25.560Z,3.63
2023-05-18T13:18:56.778Z,3.58
2023-05-18T13:21:24.313Z,3.70
2023-05-18T13:26:21.807Z,3.95
2023-05-18T13:28:51.487Z,3.55
2023-05-18T13:31:18.970Z,3.65
2023-05-18T13:41:10.255Z,3.47
2023-05-18T13:43:39.038Z,3.67
2023-05-18T13:46:06.526Z,3.13
2023-05-18T13:48:33.968Z,3.60
2023-05-18T13:51:01.413Z,3.63
2023-05-18T13:53:28.900Z,3.50
2023-05-18T13:55:56.373Z,3.90
2023-05-18T13:58:24.538Z,3.38
2023-05-18T14:00:54.684Z,3.47
2023-05-18T14:03:22.670Z,2.97
2023-05-18T14:05:50.198Z,4.55
2023-05-18T14:08:17.643Z,3.20
2023-05-18T14:10:45.143Z,3.65
2023-05-18T14:13:12.539Z,3.53
2023-05-18T14:15:39.958Z,2.92
2023-05-18T14:18:08.758Z,3.63
2023-05-18T14:20:37.809Z,3.95
2023-05-18T14:23:06.997Z,3.42
2023-05-18T14:25:35.760Z,3.53
2023-05-18T14:28:03.195Z,3.72
2023-05-18T14:30:30.930Z,3.65
2023-05-18T14:32:58.576Z,3.35
2023-05-18T14:35:27.470Z,3.53
2023-05-18T14:37:54.881Z,3.03
2023-05-18T14:40:22.324Z,2.95
2023-05-18T14:42:51.594Z,3.47
2023-05-18T14:45:21.422Z,3.40
2023-05-18T14:50:16.519Z,3.80
2023-05-18T14:52:45.346Z,2.88
2023-05-18T14:55:12.830Z,3.72
2023-05-18T14:57:40.365Z,3.65
2023-05-18T15:00:09.010Z,3.08
2023-05-18T15:02:36.957Z,3.00
2023-05-18T15:05:04.633Z,3.17
2023-05-18T15:07:32.130Z,3.35
2023-05-18T15:10:00.894Z,3.10
2023-05-18T15:12:28.395Z,2.85
2023-05-18T15:14:56.269Z,3.35
2023-05-18T15:19:50.972Z,2.88
2023-05-18T15:22:18.428Z,3.58
2023-05-18T15:24:46.321Z,3.55
2023-05-18T15:27:15.141Z,3.38
2023-05-18T15:29:42.561Z,3.58
2023-05-18T15:32:10.148Z,2.55
2023-05-18T15:34:37.595Z,2.70
2023-05-18T15:37:05.202Z,2.70
2023-05-18T15:39:32.651Z,3.40
2023-05-18T15:42:00.115Z,3.50
2023-05-18T15:44:29.743Z,3.97
2023-05-18T15:46:57.386Z,2.80
2023-05-18T15:49:25.341Z,2.63
2023-05-18T15:51:52.785Z,3.00
2023-05-18T15:54:20.169Z,3.50
2023-05-18T15:56:47.640Z,2.25
2023-05-18T15:59:15.101Z,2.88
2023-05-18T16:01:43.964Z,3.45
2023-05-18T16:04:11.515Z,3.17
2023-05-18T16:06:38.956Z,3.15
2023-05-18T16:09:06.399Z,3.30
2023-05-18T16:11:35.552Z,2.92
2023-05-18T16:14:03.067Z,3.90
2023-05-18T16:16:30.558Z,3.42
2023-05-18T16:19:00.516Z,3.20
2023-05-18T16:21:28.004Z,3.05
2023-05-18T16:23:56.329Z,2.60
2023-05-18T16:26:23.780Z,3.60
2023-05-18T16:28:51.369Z,3.30
2023-05-18T16:31:18.832Z,3.20
2023-05-18T16:33:46.382Z,2.83
2023-05-18T16:36:15.195Z,3.03
2023-05-18T16:38:42.702Z,2.70
2023-05-18T16:41:10.828Z,3.25
2023-05-18T16:43:38.242Z,3.95
2023-05-18T16:46:05.762Z,2.65
2023-05-18T16:48:33.226Z,2.97
2023-05-18T16:51:00.784Z,2.67
2023-05-18T16:53:29.553Z,3.45
2023-05-18T16:55:56.974Z,2.92
2023-05-18T16:58:24.414Z,2.53
2023-05-18T17:00:52.042Z,3.22
2023-05-18T17:03:19.714Z,2.83
2023-05-18T17:05:47.241Z,3.22
2023-05-18T17:08:14.701Z,3.00
2023-05-18T17:10:43.536Z,2.80
2023-05-18T17:13:10.956Z,2.80
2023-05-18T17:15:38.779Z,4.00
2023-05-18T17:20:33.909Z,3.05
2023-05-18T17:25:29.704Z,2.88
2023-05-18T17:27:59.201Z,3.13
2023-05-18T17:30:26.794Z,2.50
2023-05-18T17:32:55.508Z,2.55
2023-05-18T17:35:23.022Z,2.92
2023-05-18T17:37:50.443Z,2.35
2023-05-18T17:40:17.882Z,2.55
2023-05-18T17:42:45.358Z,2.88
2023-05-18T17:45:14.163Z,2.95
2023-05-18T17:47:42.109Z,2.55
2023-05-18T17:50:09.829Z,3.35
2023-05-18T17:52:37.324Z,3.08
2023-05-18T17:55:05.001Z,2.72
2023-05-18T17:57:32.795Z,3.58
2023-05-18T18:00:00.345Z,2.90
2023-05-18T18:02:29.141Z,3.38
2023-05-18T18:04:56.650Z,3.30
2023-05-18T18:07:24.097Z,2.42
2023-05-18T18:09:51.539Z,3.05
2023-05-18T18:12:19.144Z,2.67
2023-05-18T18:14:46.605Z,4.60
2023-05-18T18:17:14.070Z,2.38
2023-05-18T18:19:42.920Z,3.38
2023-05-18T18:22:10.335Z,2.30
2023-05-18T18:24:37.751Z,2.47
2023-05-18T18:27:05.592Z,3.75
2023-05-18T18:32:00.392Z,2.63
2023-05-18T18:34:27.803Z,2.42
2023-05-18T18:36:56.698Z,3.40
2023-05-18T18:39:24.878Z,2.70
2023-05-18T18:41:52.336Z,3.30
2023-05-18T18:44:19.785Z,2.47
2023-05-18T18:46:47.702Z,2.78
2023-05-18T18:49:15.402Z,3.03
2023-05-18T18:51:42.905Z,2.92
2023-05-18T18:54:11.668Z,2.60
2023-05-18T18:56:39.114Z,3.05
2023-05-18T18:59:06.635Z,3.08
2023-05-18T19:01:34.122Z,3.08
2023-05-18T19:04:01.597Z,2.70
2023-05-18T19:06:29.113Z,2.95
2023-05-18T19:08:56.570Z,2.80
2023-05-18T19:11:25.355Z,3.97
2023-05-18T19:13:52.949Z,2.97
2023-05-18T19:16:21.522Z,3.00
2023-05-18T19:18:49.205Z,2.70
2023-05-18T19:21:16.666Z,3.05
2023-05-18T19:23:44.115Z,3.30
2023-05-18T19:26:11.571Z,3.22
2023-05-18T19:28:40.461Z,3.28
2023-05-18T19:31:10.188Z,3.38
2023-05-18T19:33:37.777Z,2.75
2023-05-18T19:36:05.396Z,3.65
2023-05-18T19:38:32.875Z,3.42
2023-05-18T19:41:00.303Z,2.75
2023-05-18T19:43:27.895Z,2.90
2023-05-18T19:45:56.719Z,2.72
2023-05-18T19:48:24.178Z,2.80
2023-05-18T19:50:51.588Z,2.70
2023-05-18T19:53:19.014Z,3.22
2023-05-18T19:55:48.186Z,2.92
2023-05-18T19:58:16.320Z,3.45
2023-05-18T20:00:44.306Z,2.95
2023-05-18T20:03:14.366Z,3.15
2023-05-18T20:05:43.616Z,2.95
2023-05-18T20:08:12.510Z,3.05
2023-05-18T20:10:39.989Z,3.50
2023-05-18T20:13:07.426Z,4.00
2023-05-18T20:15:36.970Z,3.50
2023-05-18T20:18:06.639Z,3.25
2023-05-18T20:20:36.071Z,2.72
2023-05-18T20:23:03.677Z,3.58
2023-05-18T20:25:34.772Z,3.13
2023-05-18T20:28:03.070Z,2.70
2023-05-18T20:30:30.906Z,4.07
2023-05-18T20:32:59.270Z,3.72
2023-05-18T20:35:27.158Z,3.42
2023-05-18T20:37:59.612Z,2.72
2023-05-18T20:40:30.712Z,4.10
2023-05-18T20:42:58.931Z,2.90
2023-05-18T20:47:54.401Z,2.80
2023-05-18T20:50:22.889Z,3.38
2023-05-18T20:52:50.944Z,3.67
2023-05-18T20:55:20.215Z,3.58
2023-05-18T20:57:48.959Z,3.80
2023-05-18T21:00:17.278Z,3.15
2023-05-18T21:02:45.385Z,3.90
2023-05-18T21:05:13.174Z,3.10
2023-05-18T21:07:40.838Z,2.80
2023-05-18T21:10:08.465Z,4.13
2023-05-18T21:12:37.500Z,3.70
2023-05-18T21:15:05.373Z,3.30
2023-05-18T21:20:00.111Z,3.47
2023-05-18T21:22:27.629Z,4.10
2023-05-18T21:24:55.051Z,3.78
2023-05-18T21:27:22.583Z,3.30
2023-05-18T21:29:51.407Z,3.85
2023-05-18T21:32:18.865Z,3.65
2023-05-18T21:34:46.405Z,3.65
2023-05-18T21:37:13.868Z,4.32
2023-05-18T21:39:41.943Z,3.88
2023-05-18T21:42:09.466Z,4.20
2023-05-18T21:44:37.239Z,4.15
2023-05-18T21:47:06.159Z,4.47
2023-05-18T21:49:33.701Z,4.07
2023-05-18T21:52:01.141Z,3.92
2023-05-18T21:54:31.276Z,3.80
2023-05-18T21:57:00.271Z,3.42
2023-05-18T21:59:27.671Z,4.50
2023-05-18T22:01:55.113Z,4.30
2023-05-18T22:04:24.071Z,4.22
2023-05-18T22:06:53.503Z,3.80
2023-05-18T22:09:21.131Z,4.45
2023-05-18T22:11:48.593Z,3.72
2023-05-18T22:14:17.736Z,4.25
2023-05-18T22:16:45.745Z,4.05
2023-05-18T22:19:13.294Z,3.95
2023-05-18T22:21:42.471Z,5.00
2023-05-18T22:24:09.909Z,3.65
2023-05-18T22:26:37.490Z,3.50
2023-05-18T22:29:05.015Z,4.05
2023-05-18T22:31:32.612Z,3.90
2023-05-18T22:34:00.068Z,3.88
2023-05-18T22:36:29.373Z,3.78
2023-05-18T22:38:58.252Z,4.30
2023-05-18T22:41:26.887Z,3.80
2023-05-18T22:43:54.378Z,4.13
2023-05-18T22:46:21.894Z,3.42
2023-05-18T22:48:49.342Z,4.50
2023-05-18T22:51:18.454Z,3.70
2023-05-18T22:53:46.390Z,4.45
2023-05-18T22:58:42.494Z,4.20
2023-05-18T23:01:09.976Z,4.25
2023-05-18T23:03:37.454Z,4.20
2023-05-18T23:06:07.400Z,3.63
2023-05-18T23:08:36.819Z,4.68
2023-05-18T23:11:04.768Z,4.68
2023-05-18T23:16:02.295Z,4.43
2023-05-18T23:18:29.789Z,3.95
2023-05-18T23:20:58.405Z,4.68
2023-05-18T23:23:25.920Z,4.43
2023-05-18T23:25:53.484Z,4.45
2023-05-18T23:28:20.906Z,4.53
2023-05-18T23:30:48.330Z,4.95
2023-05-18T23:33:17.768Z,4.90
2023-05-18T23:35:46.599Z,4.40
2023-05-18T23:38:18.395Z,3.65
2023-05-18T23:40:46.250Z,4.40
2023-05-18T23:45:41.280Z,4.82
2023-05-18T23:48:09.276Z,4.55
2023-05-18T23:53:05.833Z,4.53
2023-05-18T23:55:35.870Z,5.00
2023-05-18T23:58:03.588Z,5.38
